Capitol Logistics 241




KHSV
Huntsville International Airport
Huntsville, Alabama
KMIA
Miami International Airport
Miami, Florida

Activity Log

Date Flight Route Aircraft Duration
10/31/2021 CPX241 RMG ATL YANTI Q89 PRMUS OMN HILEY7 B744 1h 52m
04/21/2020 CPX105 KHSV JYROD Q110 JAYMC KMIA B77L 1h 42m
08/24/2019 CPX241 KHSV RMG ATL YANTI Q89 PRMUS OMN HILEY7 KMIA B763 1h 48m
06/26/2019 CPX241 RMG ATL YANTI Q89 PRMUS OMN HILEY7 B763 1h 55m
05/31/2019 CPX105 RMG ATL YANTI Q89 PRMUS OMN HILEY7 B744 1h 42m
05/04/2019 CPX105 RMG SZW J41 PLYER JUULI SSCOT5 B744 1h 40m
04/10/2019 CPX241 RMG ATL YANTI Q89 PRMUS OMN HILEY7 B763 2h 16m
02/26/2019 CPX105 DCU V49 VUZ SZW J41 PIE CYY9 MD11 1h 39m
02/04/2019 CPX241 RMG ATL J45 AMG OMN MLB ANNEY4 B763 1h 42m
12/21/2018 CPX521 RMG ATL YANTI Q89 PRMUS OMN HILEY7 B763 2h 06m

Route Details

Aircraft Information
Group: Boeing Long Haul
Types: B744,B763
Route Data
Demand: V
Distance: 629nm
Duration: 1h 37m
Recm'd Route: RMG ATL YANTI Q89 PRMUS OMN HILEY7
Origin Wx: KHSV 272153Z 30005KT 10SM FEW034 OVC055 22/14 A2992 RMK AO2 SLP128 T02170144
Dest. Wx: KMIA 272153Z 15008G19KT 10SM FEW035 SCT100 SCT200 BKN250 29/22 A2996 RMK AO2 LTG DSNT NW SLP146 CB DSNT NW MOV NE T02890222 $
Notes:

Financial History
Total Freight: 1,263,735lbs
Average Load: 126,374lbs/flt
Fuel Used: 274,723lbs
Avg. Fuel Used: 27,472lbs/flt
Fuel Expense: $226,651
Avg. Fuel Expense: $22,665
Avg. Fuel Cost: $0.84/lbs
Total Gross Income: $1,729,908
Pilot Pay: $1,850
Total Expenses: $196,879
Total Revenue: $1,304,401
Average Revenue: $172,990.83